sensor_id;sensor_type;location;lat;lon;timestamp;temperature;humidity
36374;DHT22;22399;51.346;12.372;2023-06-22T00:01:04;21.60;83.30
36374;DHT22;22399;51.346;12.372;2023-06-22T00:03:33;21.50;83.90
36374;DHT22;22399;51.346;12.372;2023-06-22T00:06:02;21.50;84.30
36374;DHT22;22399;51.346;12.372;2023-06-22T00:08:32;21.50;84.70
36374;DHT22;22399;51.346;12.372;2023-06-22T00:11:00;21.50;85.00
36374;DHT22;22399;51.346;12.372;2023-06-22T00:13:29;21.40;85.20
36374;DHT22;22399;51.346;12.372;2023-06-22T00:15:58;21.40;85.50
36374;DHT22;22399;51.346;12.372;2023-06-22T00:18:26;21.30;86.00
36374;DHT22;22399;51.346;12.372;2023-06-22T00:20:58;21.20;86.50
36374;DHT22;22399;51.346;12.372;2023-06-22T00:23:27;21.20;87.00
36374;DHT22;22399;51.346;12.372;2023-06-22T00:25:57;21.20;87.40
36374;DHT22;22399;51.346;12.372;2023-06-22T00:28:26;21.10;87.80
36374;DHT22;22399;51.346;12.372;2023-06-22T00:30:56;21.10;88.00
36374;DHT22;22399;51.346;12.372;2023-06-22T00:33:25;21.10;88.40
36374;DHT22;22399;51.346;12.372;2023-06-22T00:35:54;21.10;88.80
36374;DHT22;22399;51.346;12.372;2023-06-22T00:38:22;21.10;88.90
36374;DHT22;22399;51.346;12.372;2023-06-22T00:40:50;21.10;89.20
36374;DHT22;22399;51.346;12.372;2023-06-22T00:43:21;21.00;89.50
36374;DHT22;22399;51.346;12.372;2023-06-22T00:45:50;21.00;89.90
36374;DHT22;22399;51.346;12.372;2023-06-22T00:48:18;21.00;90.00
36374;DHT22;22399;51.346;12.372;2023-06-22T00:50:47;21.00;90.10
36374;DHT22;22399;51.346;12.372;2023-06-22T00:53:17;21.10;90.30
36374;DHT22;22399;51.346;12.372;2023-06-22T00:55:47;21.10;90.50
36374;DHT22;22399;51.346;12.372;2023-06-22T00:58:21;21.10;90.50
36374;DHT22;22399;51.346;12.372;2023-06-22T01:00:49;21.10;90.40
36374;DHT22;22399;51.346;12.372;2023-06-22T01:03:18;21.20;90.40
36374;DHT22;22399;51.346;12.372;2023-06-22T01:05:48;21.20;90.60
36374;DHT22;22399;51.346;12.372;2023-06-22T01:08:27;21.20;90.70
36374;DHT22;22399;51.346;12.372;2023-06-22T01:11:01;21.10;90.70
36374;DHT22;22399;51.346;12.372;2023-06-22T01:13:40;21.10;90.80
36374;DHT22;22399;51.346;12.372;2023-06-22T01:16:15;21.00;91.00
36374;DHT22;22399;51.346;12.372;2023-06-22T01:18:47;20.90;91.20
36374;DHT22;22399;51.346;12.372;2023-06-22T01:21:19;20.80;91.30
36374;DHT22;22399;51.346;12.372;2023-06-22T01:24:02;20.80;91.60
36374;DHT22;22399;51.346;12.372;2023-06-22T01:26:41;20.70;91.90
36374;DHT22;22399;51.346;12.372;2023-06-22T01:29:12;20.70;92.10
36374;DHT22;22399;51.346;12.372;2023-06-22T01:31:44;20.60;92.30
36374;DHT22;22399;51.346;12.372;2023-06-22T01:34:14;20.60;92.50
36374;DHT22;22399;51.346;12.372;2023-06-22T01:36:43;20.60;92.60
36374;DHT22;22399;51.346;12.372;2023-06-22T01:39:12;20.50;92.70
36374;DHT22;22399;51.346;12.372;2023-06-22T01:41:42;20.50;92.90
36374;DHT22;22399;51.346;12.372;2023-06-22T01:44:12;20.50;93.00
36374;DHT22;22399;51.346;12.372;2023-06-22T01:46:41;20.60;93.10
36374;DHT22;22399;51.346;12.372;2023-06-22T01:49:10;20.60;93.20
36374;DHT22;22399;51.346;12.372;2023-06-22T01:51:38;20.60;93.30
36374;DHT22;22399;51.346;12.372;2023-06-22T01:54:07;20.50;93.30
36374;DHT22;22399;51.346;12.372;2023-06-22T01:56:36;20.50;93.50
36374;DHT22;22399;51.346;12.372;2023-06-22T01:59:09;20.50;93.60
36374;DHT22;22399;51.346;12.372;2023-06-22T02:01:44;20.50;93.80
36374;DHT22;22399;51.346;12.372;2023-06-22T02:04:21;20.50;94.00
36374;DHT22;22399;51.346;12.372;2023-06-22T02:06:53;20.50;94.20
36374;DHT22;22399;51.346;12.372;2023-06-22T02:09:23;20.40;94.30
36374;DHT22;22399;51.346;12.372;2023-06-22T02:11:56;20.40;94.60
36374;DHT22;22399;51.346;12.372;2023-06-22T02:14:25;20.50;94.70
36374;DHT22;22399;51.346;12.372;2023-06-22T02:16:56;20.50;94.70
36374;DHT22;22399;51.346;12.372;2023-06-22T02:19:27;20.60;94.80
36374;DHT22;22399;51.346;12.372;2023-06-22T02:22:00;20.60;94.70
36374;DHT22;22399;51.346;12.372;2023-06-22T02:24:28;20.60;94.90
36374;DHT22;22399;51.346;12.372;2023-06-22T02:26:59;20.60;94.90
36374;DHT22;22399;51.346;12.372;2023-06-22T02:29:31;20.50;95.00
36374;DHT22;22399;51.346;12.372;2023-06-22T02:32:03;20.50;95.20
36374;DHT22;22399;51.346;12.372;2023-06-22T02:34:32;20.40;95.50
36374;DHT22;22399;51.346;12.372;2023-06-22T02:37:01;20.40;95.70
36374;DHT22;22399;51.346;12.372;2023-06-22T02:39:29;20.40;95.90
36374;DHT22;22399;51.346;12.372;2023-06-22T02:41:58;20.40;96.10
36374;DHT22;22399;51.346;12.372;2023-06-22T02:44:26;20.40;96.40
36374;DHT22;22399;51.346;12.372;2023-06-22T02:46:55;20.30;96.60
36374;DHT22;22399;51.346;12.372;2023-06-22T02:49:26;20.30;96.80
36374;DHT22;22399;51.346;12.372;2023-06-22T02:51:54;20.20;96.90
36374;DHT22;22399;51.346;12.372;2023-06-22T02:54:23;20.20;97.10
36374;DHT22;22399;51.346;12.372;2023-06-22T02:56:53;20.20;97.40
36374;DHT22;22399;51.346;12.372;2023-06-22T02:59:22;20.10;97.60
36374;DHT22;22399;51.346;12.372;2023-06-22T03:01:59;20.10;97.80
36374;DHT22;22399;51.346;12.372;2023-06-22T03:04:31;20.10;98.00
36374;DHT22;22399;51.346;12.372;2023-06-22T03:07:00;20.00;98.20
36374;DHT22;22399;51.346;12.372;2023-06-22T03:09:30;20.00;98.50
36374;DHT22;22399;51.346;12.372;2023-06-22T03:11:59;19.90;98.80
36374;DHT22;22399;51.346;12.372;2023-06-22T03:14:37;19.90;99.20
36374;DHT22;22399;51.346;12.372;2023-06-22T03:17:06;19.80;99.50
36374;DHT22;22399;51.346;12.372;2023-06-22T03:19:37;19.80;99.90
36374;DHT22;22399;51.346;12.372;2023-06-22T03:22:06;19.80;99.90
36374;DHT22;22399;51.346;12.372;2023-06-22T03:24:34;19.80;99.90
36374;DHT22;22399;51.346;12.372;2023-06-22T03:27:05;19.80;99.90
36374;DHT22;22399;51.346;12.372;2023-06-22T03:29:34;19.80;99.90
36374;DHT22;22399;51.346;12.372;2023-06-22T03:32:03;19.80;99.90
36374;DHT22;22399;51.346;12.372;2023-06-22T03:34:33;19.80;99.90
36374;DHT22;22399;51.346;12.372;2023-06-22T03:37:05;19.70;99.90
36374;DHT22;22399;51.346;12.372;2023-06-22T03:39:34;19.70;99.90
36374;DHT22;22399;51.346;12.372;2023-06-22T03:42:03;19.60;99.90
36374;DHT22;22399;51.346;12.372;2023-06-22T03:44:32;19.60;99.90
36374;DHT22;22399;51.346;12.372;2023-06-22T03:47:00;19.60;99.90
36374;DHT22;22399;51.346;12.372;2023-06-22T03:49:29;19.70;99.90
36374;DHT22;22399;51.346;12.372;2023-06-22T03:51:58;19.70;99.90
36374;DHT22;22399;51.346;12.372;2023-06-22T03:54:28;19.70;99.90
36374;DHT22;22399;51.346;12.372;2023-06-22T03:56:58;19.60;99.90
36374;DHT22;22399;51.346;12.372;2023-06-22T03:59:26;19.60;99.90
36374;DHT22;22399;51.346;12.372;2023-06-22T04:01:55;19.60;99.90
36374;DHT22;22399;51.346;12.372;2023-06-22T04:04:23;19.60;99.90
36374;DHT22;22399;51.346;12.372;2023-06-22T04:06:51;19.70;99.90
36374;DHT22;22399;51.346;12.372;2023-06-22T04:09:20;19.80;99.90
36374;DHT22;22399;51.346;12.372;2023-06-22T04:11:50;20.00;99.90
36374;DHT22;22399;51.346;12.372;2023-06-22T04:14:19;20.30;99.90
36374;DHT22;22399;51.346;12.372;2023-06-22T04:16:47;20.40;99.90
36374;DHT22;22399;51.346;12.372;2023-06-22T04:19:15;20.60;99.90
36374;DHT22;22399;51.346;12.372;2023-06-22T04:21:44;20.70;99.90
36374;DHT22;22399;51.346;12.372;2023-06-22T04:24:15;20.90;99.90
36374;DHT22;22399;51.346;12.372;2023-06-22T04:26:44;21.00;99.90
36374;DHT22;22399;51.346;12.372;2023-06-22T04:29:15;21.10;99.90
36374;DHT22;22399;51.346;12.372;2023-06-22T04:31:44;21.20;99.90
36374;DHT22;22399;51.346;12.372;2023-06-22T04:34:15;21.30;99.90
36374;DHT22;22399;51.346;12.372;2023-06-22T04:36:43;21.40;99.90
36374;DHT22;22399;51.346;12.372;2023-06-22T04:39:12;21.50;99.90
36374;DHT22;22399;51.346;12.372;2023-06-22T04:41:40;21.50;99.90
36374;DHT22;22399;51.346;12.372;2023-06-22T04:44:12;21.60;99.90
36374;DHT22;22399;51.346;12.372;2023-06-22T04:46:53;21.70;99.90
36374;DHT22;22399;51.346;12.372;2023-06-22T04:49:27;21.70;99.90
36374;DHT22;22399;51.346;12.372;2023-06-22T04:52:00;21.80;99.90
36374;DHT22;22399;51.346;12.372;2023-06-22T04:54:29;21.90;99.90
36374;DHT22;22399;51.346;12.372;2023-06-22T04:57:00;21.90;99.90
36374;DHT22;22399;51.346;12.372;2023-06-22T04:59:29;21.90;99.90
36374;DHT22;22399;51.346;12.372;2023-06-22T05:02:01;21.90;99.90
36374;DHT22;22399;51.346;12.372;2023-06-22T05:04:30;21.90;99.90
36374;DHT22;22399;51.346;12.372;2023-06-22T05:07:00;21.80;99.90
36374;DHT22;22399;51.346;12.372;2023-06-22T05:09:29;21.80;99.90
36374;DHT22;22399;51.346;12.372;2023-06-22T05:11:57;21.80;99.90
36374;DHT22;22399;51.346;12.372;2023-06-22T05:14:27;22.00;99.90
36374;DHT22;22399;51.346;12.372;2023-06-22T05:16:55;22.10;99.90
36374;DHT22;22399;51.346;12.372;2023-06-22T05:19:27;22.10;99.90
36374;DHT22;22399;51.346;12.372;2023-06-22T05:22:01;22.20;99.90
36374;DHT22;22399;51.346;12.372;2023-06-22T05:24:29;22.40;99.90
36374;DHT22;22399;51.346;12.372;2023-06-22T05:26:58;22.60;99.90
36374;DHT22;22399;51.346;12.372;2023-06-22T05:29:26;22.80;99.90
36374;DHT22;22399;51.346;12.372;2023-06-22T05:31:55;22.80;99.90
36374;DHT22;22399;51.346;12.372;2023-06-22T05:34:23;22.80;99.90
36374;DHT22;22399;51.346;12.372;2023-06-22T05:36:53;22.70;99.90
36374;DHT22;22399;51.346;12.372;2023-06-22T05:39:22;22.80;99.90
36374;DHT22;22399;51.346;12.372;2023-06-22T05:41:50;22.70;99.90
36374;DHT22;22399;51.346;12.372;2023-06-22T05:44:19;22.60;99.90
36374;DHT22;22399;51.346;12.372;2023-06-22T05:46:47;22.60;99.90
36374;DHT22;22399;51.346;12.372;2023-06-22T05:49:16;23.10;99.90
36374;DHT22;22399;51.346;12.372;2023-06-22T05:51:44;24.00;99.90
36374;DHT22;22399;51.346;12.372;2023-06-22T05:54:15;24.60;99.90
36374;DHT22;22399;51.346;12.372;2023-06-22T05:56:45;25.30;99.90
36374;DHT22;22399;51.346;12.372;2023-06-22T05:59:13;26.00;99.10
36374;DHT22;22399;51.346;12.372;2023-06-22T06:01:42;26.40;97.80
36374;DHT22;22399;51.346;12.372;2023-06-22T06:04:11;26.90;95.70
36374;DHT22;22399;51.346;12.372;2023-06-22T06:06:40;27.10;93.60
36374;DHT22;22399;51.346;12.372;2023-06-22T06:09:08;27.10;92.50
36374;DHT22;22399;51.346;12.372;2023-06-22T06:11:40;26.90;92.90
36374;DHT22;22399;51.346;12.372;2023-06-22T06:14:09;27.30;93.00
36374;DHT22;22399;51.346;12.372;2023-06-22T06:16:38;27.90;90.60
36374;DHT22;22399;51.346;12.372;2023-06-22T06:19:06;27.80;90.50
36374;DHT22;22399;51.346;12.372;2023-06-22T06:21:35;28.00;90.80
36374;DHT22;22399;51.346;12.372;2023-06-22T06:24:04;28.00;88.80
36374;DHT22;22399;51.346;12.372;2023-06-22T06:26:32;28.20;88.90
36374;DHT22;22399;51.346;12.372;2023-06-22T06:29:04;28.60;86.60
36374;DHT22;22399;51.346;12.372;2023-06-22T06:31:32;28.10;85.40
36374;DHT22;22399;51.346;12.372;2023-06-22T06:34:00;27.80;86.60
36374;DHT22;22399;51.346;12.372;2023-06-22T06:36:29;27.60;85.50
36374;DHT22;22399;51.346;12.372;2023-06-22T06:38:57;27.30;87.20
36374;DHT22;22399;51.346;12.372;2023-06-22T06:41:26;27.40;87.30
36374;DHT22;22399;51.346;12.372;2023-06-22T06:43:54;27.60;85.80
36374;DHT22;22399;51.346;12.372;2023-06-22T06:46:24;27.60;85.30
36374;DHT22;22399;51.346;12.372;2023-06-22T06:48:52;27.90;84.80
36374;DHT22;22399;51.346;12.372;2023-06-22T06:51:21;27.70;83.40
36374;DHT22;22399;51.346;12.372;2023-06-22T06:53:49;27.70;82.10
36374;DHT22;22399;51.346;12.372;2023-06-22T06:56:18;27.80;81.80
36374;DHT22;22399;51.346;12.372;2023-06-22T06:58:46;28.30;80.40
36374;DHT22;22399;51.346;12.372;2023-06-22T07:01:16;28.20;78.40
36374;DHT22;22399;51.346;12.372;2023-06-22T07:03:49;27.80;78.10
36374;DHT22;22399;51.346;12.372;2023-06-22T07:06:18;27.50;79.40
36374;DHT22;22399;51.346;12.372;2023-06-22T07:08:46;28.70;78.50
36374;DHT22;22399;51.346;12.372;2023-06-22T07:11:15;29.10;75.20
36374;DHT22;22399;51.346;12.372;2023-06-22T07:13:43;29.50;74.30
36374;DHT22;22399;51.346;12.372;2023-06-22T07:16:11;29.30;73.30
36374;DHT22;22399;51.346;12.372;2023-06-22T07:18:40;28.80;74.30
36374;DHT22;22399;51.346;12.372;2023-06-22T07:21:10;28.50;75.10
36374;DHT22;22399;51.346;12.372;2023-06-22T07:23:38;28.40;75.30
36374;DHT22;22399;51.346;12.372;2023-06-22T07:26:06;28.30;75.40
36374;DHT22;22399;51.346;12.372;2023-06-22T07:28:35;27.90;75.40
36374;DHT22;22399;51.346;12.372;2023-06-22T07:31:05;28.40;74.80
36374;DHT22;22399;51.346;12.372;2023-06-22T07:33:34;28.90;73.70
36374;DHT22;22399;51.346;12.372;2023-06-22T07:36:03;29.40;72.60
36374;DHT22;22399;51.346;12.372;2023-06-22T07:38:36;30.30;71.30
36374;DHT22;22399;51.346;12.372;2023-06-22T07:41:05;30.70;69.50
36374;DHT22;22399;51.346;12.372;2023-06-22T07:43:33;30.50;69.00
36374;DHT22;22399;51.346;12.372;2023-06-22T07:46:04;30.40;69.30
36374;DHT22;22399;51.346;12.372;2023-06-22T07:48:32;30.50;68.90
36374;DHT22;22399;51.346;12.372;2023-06-22T07:51:01;30.80;68.30
36374;DHT22;22399;51.346;12.372;2023-06-22T07:53:30;30.80;67.70
36374;DHT22;22399;51.346;12.372;2023-06-22T07:56:00;30.30;68.00
36374;DHT22;22399;51.346;12.372;2023-06-22T07:58:34;29.90;69.00
36374;DHT22;22399;51.346;12.372;2023-06-22T08:01:03;30.10;68.50
36374;DHT22;22399;51.346;12.372;2023-06-22T08:03:34;30.10;67.40
36374;DHT22;22399;51.346;12.372;2023-06-22T08:06:03;30.50;67.30
36374;DHT22;22399;51.346;12.372;2023-06-22T08:08:32;31.00;66.40
36374;DHT22;22399;51.346;12.372;2023-06-22T08:11:01;31.40;65.20
36374;DHT22;22399;51.346;12.372;2023-06-22T08:13:30;31.60;64.90
36374;DHT22;22399;51.346;12.372;2023-06-22T08:15:59;31.60;64.70
36374;DHT22;22399;51.346;12.372;2023-06-22T08:18:28;31.60;64.80
36374;DHT22;22399;51.346;12.372;2023-06-22T08:20:56;31.50;65.00
36374;DHT22;22399;51.346;12.372;2023-06-22T08:23:25;31.30;65.20
36374;DHT22;22399;51.346;12.372;2023-06-22T08:25:54;31.30;65.40
36374;DHT22;22399;51.346;12.372;2023-06-22T08:28:24;31.20;65.10
36374;DHT22;22399;51.346;12.372;2023-06-22T08:30:52;31.30;65.30
36374;DHT22;22399;51.346;12.372;2023-06-22T08:33:22;31.50;64.40
36374;DHT22;22399;51.346;12.372;2023-06-22T08:35:55;31.20;64.30
36374;DHT22;22399;51.346;12.372;2023-06-22T08:38:24;30.60;64.80
36374;DHT22;22399;51.346;12.372;2023-06-22T08:40:53;30.60;64.90
36374;DHT22;22399;51.346;12.372;2023-06-22T08:43:23;30.20;64.90
36374;DHT22;22399;51.346;12.372;2023-06-22T08:45:52;30.20;64.90
36374;DHT22;22399;51.346;12.372;2023-06-22T08:48:20;30.40;64.30
36374;DHT22;22399;51.346;12.372;2023-06-22T08:50:48;30.50;63.80
36374;DHT22;22399;51.346;12.372;2023-06-22T08:53:17;30.30;63.40
36374;DHT22;22399;51.346;12.372;2023-06-22T08:55:45;30.30;62.90
36374;DHT22;22399;51.346;12.372;2023-06-22T08:58:14;30.20;63.20
36374;DHT22;22399;51.346;12.372;2023-06-22T09:00:44;30.20;62.60
36374;DHT22;22399;51.346;12.372;2023-06-22T09:03:12;30.90;62.50
36374;DHT22;22399;51.346;12.372;2023-06-22T09:05:41;31.30;61.60
36374;DHT22;22399;51.346;12.372;2023-06-22T09:08:11;32.20;61.10
36374;DHT22;22399;51.346;12.372;2023-06-22T09:10:39;32.60;59.10
36374;DHT22;22399;51.346;12.372;2023-06-22T09:13:08;32.50;58.90
36374;DHT22;22399;51.346;12.372;2023-06-22T09:15:36;32.50;58.70
36374;DHT22;22399;51.346;12.372;2023-06-22T09:18:08;32.10;59.20
36374;DHT22;22399;51.346;12.372;2023-06-22T09:20:38;31.90;59.60
36374;DHT22;22399;51.346;12.372;2023-06-22T09:23:06;32.20;59.40
36374;DHT22;22399;51.346;12.372;2023-06-22T09:25:35;32.50;59.10
36374;DHT22;22399;51.346;12.372;2023-06-22T09:28:03;32.30;58.60
36374;DHT22;22399;51.346;12.372;2023-06-22T09:30:32;32.00;58.80
36374;DHT22;22399;51.346;12.372;2023-06-22T09:33:00;31.90;58.70
36374;DHT22;22399;51.346;12.372;2023-06-22T09:35:30;31.90;58.90
36374;DHT22;22399;51.346;12.372;2023-06-22T09:37:59;32.00;58.40
36374;DHT22;22399;51.346;12.372;2023-06-22T09:40:27;31.90;57.90
36374;DHT22;22399;51.346;12.372;2023-06-22T09:42:56;32.10;58.10
36374;DHT22;22399;51.346;12.372;2023-06-22T09:45:24;32.40;57.20
36374;DHT22;22399;51.346;12.372;2023-06-22T09:47:53;32.40;56.80
36374;DHT22;22399;51.346;12.372;2023-06-22T09:50:22;32.20;56.50
36374;DHT22;22399;51.346;12.372;2023-06-22T09:52:52;31.80;56.80
36374;DHT22;22399;51.346;12.372;2023-06-22T09:55:22;31.90;57.10
36374;DHT22;22399;51.346;12.372;2023-06-22T09:57:51;31.90;56.70
36374;DHT22;22399;51.346;12.372;2023-06-22T10:00:21;32.30;56.00
36374;DHT22;22399;51.346;12.372;2023-06-22T10:02:49;32.30;55.00
36374;DHT22;22399;51.346;12.372;2023-06-22T10:05:18;32.30;55.00
36374;DHT22;22399;51.346;12.372;2023-06-22T10:07:48;32.40;55.00
36374;DHT22;22399;51.346;12.372;2023-06-22T10:10:18;33.20;54.40
36374;DHT22;22399;51.346;12.372;2023-06-22T10:12:55;32.80;54.00
36374;DHT22;22399;51.346;12.372;2023-06-22T10:15:24;32.70;54.40
36374;DHT22;22399;51.346;12.372;2023-06-22T10:17:55;32.90;54.20
36374;DHT22;22399;51.346;12.372;2023-06-22T10:20:23;33.00;54.20
36374;DHT22;22399;51.346;12.372;2023-06-22T10:22:53;32.90;53.40
36374;DHT22;22399;51.346;12.372;2023-06-22T10:25:26;33.40;53.30
36374;DHT22;22399;51.346;12.372;2023-06-22T10:27:56;33.00;53.10
36374;DHT22;22399;51.346;12.372;2023-06-22T10:30:24;33.00;53.00
36374;DHT22;22399;51.346;12.372;2023-06-22T10:32:53;33.00;52.70
36374;DHT22;22399;51.346;12.372;2023-06-22T10:35:22;33.00;52.60
36374;DHT22;22399;51.346;12.372;2023-06-22T10:37:51;32.80;52.80
36374;DHT22;22399;51.346;12.372;2023-06-22T10:40:19;33.10;52.30
36374;DHT22;22399;51.346;12.372;2023-06-22T10:42:49;33.20;52.30
36374;DHT22;22399;51.346;12.372;2023-06-22T10:45:18;33.60;52.40
36374;DHT22;22399;51.346;12.372;2023-06-22T10:47:46;33.80;51.50
36374;DHT22;22399;51.346;12.372;2023-06-22T10:50:15;33.40;51.50
36374;DHT22;22399;51.346;12.372;2023-06-22T10:52:44;33.30;52.30
36374;DHT22;22399;51.346;12.372;2023-06-22T10:55:12;33.60;51.60
36374;DHT22;22399;51.346;12.372;2023-06-22T10:57:41;33.80;51.10
36374;DHT22;22399;51.346;12.372;2023-06-22T11:00:14;33.60;51.10
36374;DHT22;22399;51.346;12.372;2023-06-22T11:02:43;33.20;51.20
36374;DHT22;22399;51.346;12.372;2023-06-22T11:05:12;33.10;51.40
36374;DHT22;22399;51.346;12.372;2023-06-22T11:07:42;33.40;51.40
36374;DHT22;22399;51.346;12.372;2023-06-22T11:10:16;33.90;51.20
36374;DHT22;22399;51.346;12.372;2023-06-22T11:12:44;34.20;50.30
36374;DHT22;22399;51.346;12.372;2023-06-22T11:15:14;34.30;50.40
36374;DHT22;22399;51.346;12.372;2023-06-22T11:17:42;34.20;50.10
36374;DHT22;22399;51.346;12.372;2023-06-22T11:20:12;33.80;50.40
36374;DHT22;22399;51.346;12.372;2023-06-22T11:22:40;33.70;50.40
36374;DHT22;22399;51.346;12.372;2023-06-22T11:25:09;33.50;50.30
36374;DHT22;22399;51.346;12.372;2023-06-22T11:27:39;33.30;50.50
36374;DHT22;22399;51.346;12.372;2023-06-22T11:30:08;33.10;50.70
36374;DHT22;22399;51.346;12.372;2023-06-22T11:32:38;33.40;50.60
36374;DHT22;22399;51.346;12.372;2023-06-22T11:35:07;33.40;49.80
36374;DHT22;22399;51.346;12.372;2023-06-22T11:37:36;33.60;49.70
36374;DHT22;22399;51.346;12.372;2023-06-22T11:40:05;33.80;49.10
36374;DHT22;22399;51.346;12.372;2023-06-22T11:42:35;33.90;49.30
36374;DHT22;22399;51.346;12.372;2023-06-22T11:45:07;33.70;49.20
36374;DHT22;22399;51.346;12.372;2023-06-22T11:47:36;33.70;49.50
36374;DHT22;22399;51.346;12.372;2023-06-22T11:50:07;34.10;49.50
36374;DHT22;22399;51.346;12.372;2023-06-22T11:52:36;34.50;49.00
36374;DHT22;22399;51.346;12.372;2023-06-22T11:55:05;34.70;48.50
36374;DHT22;22399;51.346;12.372;2023-06-22T11:57:34;34.60;48.60
36374;DHT22;22399;51.346;12.372;2023-06-22T12:00:04;34.00;48.60
36374;DHT22;22399;51.346;12.372;2023-06-22T12:02:43;33.90;49.10
36374;DHT22;22399;51.346;12.372;2023-06-22T12:05:14;34.00;49.00
36374;DHT22;22399;51.346;12.372;2023-06-22T12:07:42;34.10;49.20
36374;DHT22;22399;51.346;12.372;2023-06-22T12:10:11;34.20;49.10
36374;DHT22;22399;51.346;12.372;2023-06-22T12:12:40;34.00;49.00
36374;DHT22;22399;51.346;12.372;2023-06-22T12:15:09;34.00;49.20
36374;DHT22;22399;51.346;12.372;2023-06-22T12:17:38;33.90;49.00
36374;DHT22;22399;51.346;12.372;2023-06-22T12:20:07;34.20;49.20
36374;DHT22;22399;51.346;12.372;2023-06-22T12:22:37;34.70;48.40
36374;DHT22;22399;51.346;12.372;2023-06-22T12:25:07;34.80;48.00
36374;DHT22;22399;51.346;12.372;2023-06-22T12:27:35;35.20;48.10
36374;DHT22;22399;51.346;12.372;2023-06-22T12:30:05;35.50;47.50
36374;DHT22;22399;51.346;12.372;2023-06-22T12:32:33;35.50;47.30
36374;DHT22;22399;51.346;12.372;2023-06-22T12:35:03;35.50;47.50
36374;DHT22;22399;51.346;12.372;2023-06-22T12:37:31;35.20;47.20
36374;DHT22;22399;51.346;12.372;2023-06-22T12:40:02;35.20;47.60
36374;DHT22;22399;51.346;12.372;2023-06-22T12:42:32;35.10;47.20
36374;DHT22;22399;51.346;12.372;2023-06-22T12:45:00;34.70;47.50
36374;DHT22;22399;51.346;12.372;2023-06-22T12:47:29;34.50;47.50
36374;DHT22;22399;51.346;12.372;2023-06-22T12:49:58;33.80;47.80
36374;DHT22;22399;51.346;12.372;2023-06-22T12:52:26;33.70;48.20
36374;DHT22;22399;51.346;12.372;2023-06-22T12:54:55;34.10;48.00
36374;DHT22;22399;51.346;12.372;2023-06-22T12:57:25;34.10;47.60
36374;DHT22;22399;51.346;12.372;2023-06-22T12:59:53;34.40;47.50
36374;DHT22;22399;51.346;12.372;2023-06-22T13:02:22;34.30;47.30
36374;DHT22;22399;51.346;12.372;2023-06-22T13:04:52;34.20;47.30
36374;DHT22;22399;51.346;12.372;2023-06-22T13:07:22;34.10;47.20
36374;DHT22;22399;51.346;12.372;2023-06-22T13:09:52;34.40;47.20
36374;DHT22;22399;51.346;12.372;2023-06-22T13:12:21;34.00;47.00
36374;DHT22;22399;51.346;12.372;2023-06-22T13:14:51;33.20;47.70
36374;DHT22;22399;51.346;12.372;2023-06-22T13:17:23;33.10;48.30
36374;DHT22;22399;51.346;12.372;2023-06-22T13:19:52;33.10;48.10
36374;DHT22;22399;51.346;12.372;2023-06-22T13:22:28;33.30;48.10
36374;DHT22;22399;51.346;12.372;2023-06-22T13:24:57;33.60;48.00
36374;DHT22;22399;51.346;12.372;2023-06-22T13:27:26;34.00;47.30
36374;DHT22;22399;51.346;12.372;2023-06-22T13:29:56;33.90;47.00
36374;DHT22;22399;51.346;12.372;2023-06-22T13:32:25;34.00;46.90
36374;DHT22;22399;51.346;12.372;2023-06-22T13:34:54;34.30;46.90
36374;DHT22;22399;51.346;12.372;2023-06-22T13:37:22;34.40;46.60
36374;DHT22;22399;51.346;12.372;2023-06-22T13:39:51;34.10;47.00
36374;DHT22;22399;51.346;12.372;2023-06-22T13:42:20;33.60;47.30
36374;DHT22;22399;51.346;12.372;2023-06-22T13:44:49;33.50;47.50
36374;DHT22;22399;51.346;12.372;2023-06-22T13:47:19;34.10;47.00
36374;DHT22;22399;51.346;12.372;2023-06-22T13:49:47;34.50;46.20
36374;DHT22;22399;51.346;12.372;2023-06-22T13:52:16;34.80;46.00
36374;DHT22;22399;51.346;12.372;2023-06-22T13:54:44;34.50;46.00
36374;DHT22;22399;51.346;12.372;2023-06-22T13:57:13;34.80;46.10
36374;DHT22;22399;51.346;12.372;2023-06-22T13:59:41;35.30;45.80
36374;DHT22;22399;51.346;12.372;2023-06-22T14:02:10;35.60;45.50
36374;DHT22;22399;51.346;12.372;2023-06-22T14:04:39;35.80;45.00
36374;DHT22;22399;51.346;12.372;2023-06-22T14:07:08;35.90;44.50
36374;DHT22;22399;51.346;12.372;2023-06-22T14:09:37;35.00;45.50
36374;DHT22;22399;51.346;12.372;2023-06-22T14:12:06;34.40;46.40
36374;DHT22;22399;51.346;12.372;2023-06-22T14:14:35;34.00;47.00
36374;DHT22;22399;51.346;12.372;2023-06-22T14:17:04;33.80;47.30
36374;DHT22;22399;51.346;12.372;2023-06-22T14:19:33;33.50;47.40
36374;DHT22;22399;51.346;12.372;2023-06-22T14:22:02;33.30;47.80
36374;DHT22;22399;51.346;12.372;2023-06-22T14:24:31;33.30;47.90
36374;DHT22;22399;51.346;12.372;2023-06-22T14:27:00;33.30;47.70
36374;DHT22;22399;51.346;12.372;2023-06-22T14:29:30;33.10;47.80
36374;DHT22;22399;51.346;12.372;2023-06-22T14:31:59;33.00;48.00
36374;DHT22;22399;51.346;12.372;2023-06-22T14:34:28;33.10;48.00
36374;DHT22;22399;51.346;12.372;2023-06-22T14:36:56;33.20;47.80
36374;DHT22;22399;51.346;12.372;2023-06-22T14:39:26;33.00;47.90
36374;DHT22;22399;51.346;12.372;2023-06-22T14:41:55;32.80;48.10
36374;DHT22;22399;51.346;12.372;2023-06-22T14:44:23;32.80;48.30
36374;DHT22;22399;51.346;12.372;2023-06-22T14:46:51;32.60;48.40
36374;DHT22;22399;51.346;12.372;2023-06-22T14:49:20;32.70;48.60
36374;DHT22;22399;51.346;12.372;2023-06-22T14:51:49;32.70;48.40
36374;DHT22;22399;51.346;12.372;2023-06-22T14:54:17;32.70;48.60
36374;DHT22;22399;51.346;12.372;2023-06-22T14:56:47;32.70;48.50
36374;DHT22;22399;51.346;12.372;2023-06-22T14:59:16;32.70;48.60
36374;DHT22;22399;51.346;12.372;2023-06-22T15:01:44;32.70;48.60
36374;DHT22;22399;51.346;12.372;2023-06-22T15:04:15;32.60;48.60
36374;DHT22;22399;51.346;12.372;2023-06-22T15:06:43;32.60;48.60
36374;DHT22;22399;51.346;12.372;2023-06-22T15:09:12;32.80;48.60
36374;DHT22;22399;51.346;12.372;2023-06-22T15:11:41;32.90;48.40
36374;DHT22;22399;51.346;12.372;2023-06-22T15:14:10;32.90;48.30
36374;DHT22;22399;51.346;12.372;2023-06-22T15:16:41;32.90;48.30
36374;DHT22;22399;51.346;12.372;2023-06-22T15:19:10;32.90;48.30
36374;DHT22;22399;51.346;12.372;2023-06-22T15:21:40;32.90;48.40
36374;DHT22;22399;51.346;12.372;2023-06-22T15:24:10;32.50;48.40
36374;DHT22;22399;51.346;12.372;2023-06-22T15:26:39;32.40;48.80
36374;DHT22;22399;51.346;12.372;2023-06-22T15:29:07;32.40;49.00